Time;durP1;ratioP1;P1;durP2;ratioP2;P2;SDS_P1;SDS_P2;PMS_P1;PMS_P2;Temp;Humidity;BMP_temperature;BMP_pressure;BME280_temperature;BME280_humidity;BME280_pressure;Samples;Min_cycle;Max_cycle;Signal;HPM_P1;HPM_P2
2021/03/12 05:01:56;;;;;;;2.03;0.90;;;9.00;43.00;;;;;;6267123;22;20211;31
2021/03/12 05:04:23;;;;;;;3.28;2.03;;;9.00;42.90;;;;;;6311305;22;20230;-93
2021/03/12 05:06:58;;;;;;;7.32;3.35;;;8.30;42.60;;;;;;6299185;22;20669;-90
2021/03/12 05:09:40;;;;;;;2.47;1.63;;;8.60;43.90;;;;;;6327644;22;20641;-94
2021/03/12 05:12:07;;;;;;;3.15;1.52;;;8.50;44.10;;;;;;6278527;22;20206;-94
2021/03/12 05:14:32;;;;;;;2.72;1.83;;;8.70;44.30;;;;;;6279874;22;20585;-94
2021/03/12 05:17:29;;;;;;;4.50;2.20;;;8.50;44.10;;;;;;6290628;22;20207;-95
2021/03/12 05:19:56;;;;;;;4.30;1.15;;;8.30;44.10;;;;;;6303577;22;20214;-90
2021/03/12 05:22:21;;;;;;;2.13;0.98;;;8.40;44.10;;;;;;6316359;22;20209;-91
2021/03/12 05:25:21;;;;;;;1.67;1.10;;;8.60;44.20;;;;;;6308422;22;20639;-93
2021/03/12 05:27:53;;;;;;;2.42;0.80;;;8.70;45.20;;;;;;6312640;22;20575;-94
2021/03/12 05:30:18;;;;;;;2.90;1.20;;;8.50;44.90;;;;;;6312582;22;20183;-93
2021/03/12 05:36:06;;;;;;;7.70;1.42;;;8.40;44.70;;;;;;6314772;22;20430;-93
2021/03/12 05:38:50;;;;;;;4.50;1.40;;;8.40;44.70;;;;;;6312881;22;20152;-94
2021/03/12 05:41:18;;;;;;;6.88;1.30;;;8.20;44.50;;;;;;6313181;22;20185;-93
2021/03/12 05:43:44;;;;;;;3.28;1.20;;;8.60;45.00;;;;;;6315702;22;20180;-92
2021/03/12 05:49:35;;;;;;;5.32;1.50;;;8.70;44.60;;;;;;6316995;22;20131;-95
2021/03/12 05:55:22;;;;;;;7.00;3.55;;;8.60;44.70;;;;;;6316598;22;20139;-94
2021/03/12 06:01:10;;;;;;;5.75;2.72;;;8.70;43.90;;;;;;6313887;22;20136;-93
2021/03/12 06:06:58;;;;;;;2.90;1.40;;;8.90;43.50;;;;;;6314684;22;20143;-92
2021/03/12 06:12:51;;;;;;;2.90;1.13;;;8.90;43.60;;;;;;6321585;22;20135;-92
2021/03/12 06:18:39;;;;;;;3.47;1.73;;;9.00;43.60;;;;;;6312221;22;20136;-93
2021/03/12 06:31:26;;;;;;;5.20;1.25;;;8.60;46.40;;;;;;6259187;23;20184;-94
2021/03/12 06:34:23;;;;;;;5.50;1.20;;;8.70;45.80;;;;;;6228049;23;20161;-93
2021/03/12 06:36:52;;;;;;;1.40;0.90;;;8.60;45.50;;;;;;6230407;23;20207;-95
2021/03/12 06:39:18;;;;;;;3.50;1.98;;;9.00;45.40;;;;;;6223709;23;20284;-90
2021/03/12 06:45:06;;;;;;;2.35;0.85;;;8.90;45.80;;;;;;6249912;22;20166;-93
2021/03/12 08:38:23;;;;;;;1.20;0.90;;;11.00;39.30;;;;;;6288482;22;20196;-94
2021/03/12 08:41:01;;;;;;;5.38;1.15;;;11.10;39.60;;;;;;6289693;22;20165;-92
2021/03/12 08:46:50;;;;;;;1.73;0.88;;;11.40;39.80;;;;;;6296816;22;20136;-92
2021/03/12 08:49:16;;;;;;;3.33;1.30;;;11.30;39.50;;;;;;6263886;22;20443;-94
2021/03/12 08:51:49;;;;;;;3.53;1.58;;;11.30;39.10;;;;;;6262052;22;20394;-94
2021/03/12 08:54:15;;;;;;;4.32;1.75;;;11.60;39.20;;;;;;6260944;22;20432;-94
2021/03/12 08:56:43;;;;;;;2.80;1.23;;;11.20;37.60;;;;;;6265144;22;20141;-93
2021/03/12 08:59:09;;;;;;;2.65;1.00;;;12.00;38.30;;;;;;6266634;22;20387;-93
2021/03/12 09:01:37;;;;;;;3.20;1.85;;;11.90;37.50;;;;;;6261164;22;20413;-94
2021/03/12 09:04:05;;;;;;;2.80;1.20;;;12.00;36.30;;;;;;6264783;22;20178;-95
2021/03/12 09:06:59;;;;;;;3.03;1.77;;;12.30;36.90;;;;;;6269342;22;20371;-93
2021/03/12 09:09:27;;;;;;;3.08;1.10;;;12.00;37.70;;;;;;6268547;22;20149;-92
2021/03/12 09:12:32;;;;;;;4.63;1.10;;;11.20;37.70;;;;;;6277281;22;20152;-93
2021/03/12 09:53:22;;;;;;;4.20;1.20;;;11.00;37.80;;;;;;6284712;22;20487;-94
2021/03/12 12:55:19;;;;;;;3.08;1.23;;;12.70;30.00;;;;;;6300571;22;20432;-93
2021/03/12 12:58:23;;;;;;;2.80;1.50;;;12.10;31.00;;;;;;6266036;22;20149;-92
2021/03/12 13:00:48;;;;;;;1.93;1.00;;;12.00;30.40;;;;;;6266152;22;20375;-93
2021/03/12 13:03:16;;;;;;;3.97;1.77;;;12.30;29.50;;;;;;6264963;22;20427;-94
2021/03/12 13:09:07;;;;;;;3.03;1.10;;;12.40;29.10;;;;;;6294858;22;20343;-93
2021/03/12 13:11:51;;;;;;;2.50;1.33;;;12.20;30.40;;;;;;6261994;22;20240;-94
2021/03/12 13:14:22;;;;;;;1.80;0.97;;;12.20;29.80;;;;;;6265385;22;20402;-93
2021/03/12 13:16:50;;;;;;;3.13;1.40;;;12.10;29.30;;;;;;6265125;22;20383;-94
2021/03/12 13:29:24;;;;;;;6.17;1.40;;;13.50;27.30;;;;;;6288315;22;20343;-96
2021/03/12 13:35:19;;;;;;;3.30;1.30;;;13.40;26.80;;;;;;6293356;22;20364;-94
2021/03/12 13:41:07;;;;;;;2.07;1.80;;;14.00;25.90;;;;;;6284713;22;20339;-93
2021/03/12 13:44:10;;;;;;;8.00;3.37;;;14.30;25.80;;;;;;6259972;22;20415;-94
2021/03/12 13:46:36;;;;;;;4.63;2.00;;;14.00;24.90;;;;;;6259281;22;20174;-93
2021/03/12 13:49:02;;;;;;;6.03;2.00;;;14.20;25.20;;;;;;6263696;22;20367;-94
2021/03/12 13:51:28;;;;;;;3.20;2.90;;;14.10;24.90;;;;;;6228091;22;20428;-91
2021/03/12 13:54:41;;;;;;;4.80;1.70;;;13.80;25.30;;;;;;6236592;23;20379;-93
2021/03/12 13:57:11;;;;;;;5.27;4.67;;;13.90;24.80;;;;;;6233814;23;20376;-95
2021/03/12 13:59:54;;;;;;;4.97;2.80;;;14.10;26.00;;;;;;6238886;23;20384;-95
2021/03/12 14:06:02;;;;;;;7.87;6.10;;;13.30;25.80;;;;;;6122870;23;20384;-95
2021/03/12 14:08:28;;;;;;;8.03;3.80;;;13.30;26.70;;;;;;6191826;23;20387;-94
2021/03/12 14:11:10;;;;;;;9.60;4.73;;;12.50;26.40;;;;;;6169088;23;20423;-92
2021/03/12 14:13:39;;;;;;;6.50;4.13;;;12.90;26.50;;;;;;6175186;23;20470;-95
2021/03/12 14:16:25;;;;;;;3.50;1.30;;;12.90;26.80;;;;;;6177177;23;20378;-95
2021/03/12 14:18:51;;;;;;;3.60;1.20;;;12.70;27.10;;;;;;6175448;23;20419;-94
2021/03/12 14:21:18;;;;;;;5.53;2.10;;;13.40;27.00;;;;;;6173395;23;20378;-93
2021/03/12 14:27:06;;;;;;;3.50;1.60;;;13.10;27.30;;;;;;6204901;23;20394;-94
2021/03/12 14:29:45;;;;;;;1.50;0.90;;;12.80;26.60;;;;;;6177808;23;20430;-95
2021/03/12 14:32:14;;;;;;;3.80;1.50;;;12.80;27.50;;;;;;6180452;23;20402;-95
2021/03/12 14:38:03;;;;;;;3.73;1.07;;;12.30;28.10;;;;;;6267948;23;20349;-93
2021/03/12 14:40:30;;;;;;;3.40;1.17;;;12.00;27.80;;;;;;6241391;23;20407;-95
2021/03/12 14:46:19;;;;;;;2.30;1.13;;;12.20;28.30;;;;;;6258073;23;20141;-92
2021/03/12 14:48:47;;;;;;;2.70;1.13;;;12.10;29.30;;;;;;6232264;23;20373;-93
2021/03/12 14:51:41;;;;;;;2.80;1.27;;;12.10;28.90;;;;;;6256061;22;20415;-94
2021/03/12 14:57:05;;;;;;;3.00;1.40;;;11.20;34.50;;;;;;6298299;22;20374;-95
2021/03/12 14:59:32;;;;;;;4.10;1.70;;;12.00;37.40;;;;;;6267232;22;20152;-93
2021/03/12 15:01:59;;;;;;;3.70;1.90;;;11.80;36.90;;;;;;6264874;22;20470;-93
2021/03/12 15:04:24;;;;;;;5.25;1.08;;;11.50;37.10;;;;;;6266280;22;20430;-92
2021/03/12 15:06:50;;;;;;;6.20;1.70;;;11.40;38.00;;;;;;6264123;22;20141;-93
2021/03/12 15:09:31;;;;;;;2.20;1.17;;;11.20;38.10;;;;;;6263939;22;20167;-93
2021/03/12 15:11:57;;;;;;;4.05;1.08;;;10.80;38.10;;;;;;6267997;22;20371;-93
2021/03/12 15:14:52;;;;;;;4.53;1.63;;;10.80;39.30;;;;;;6268412;22;20153;-93
2021/03/12 15:17:24;;;;;;;2.95;1.02;;;11.00;39.90;;;;;;6266646;22;20153;-92
2021/03/12 15:20:03;;;;;;;1.92;1.23;;;10.60;38.80;;;;;;6271517;22;20145;-92
2021/03/12 15:22:59;;;;;;;2.40;1.00;;;11.00;41.20;;;;;;6239114;23;20158;-94
2021/03/12 15:25:26;;;;;;;3.45;1.40;;;10.20;40.10;;;;;;6258311;23;20249;-93
2021/03/12 15:28:00;;;;;;;2.70;1.63;;;10.70;40.90;;;;;;6256176;23;20587;-91
2021/03/12 15:33:30;;;;;;;1.80;1.50;;;10.60;40.70;;;;;;6259495;23;20211;-94
2021/03/12 15:39:18;;;;;;;2.58;2.38;;;10.80;39.70;;;;;;6253082;23;20133;-94
2021/03/12 15:48:30;;;;;;;3.13;1.30;;;10.70;40.90;;;;;;6254928;23;20221;-93
2021/03/12 15:51:26;;;;;;;4.90;1.50;;;11.20;41.60;;;;;;6261242;22;20238;-93
2021/03/12 15:53:56;;;;;;;2.40;1.25;;;11.40;40.20;;;;;;6241132;23;20172;-94
2021/03/12 15:56:23;;;;;;;3.37;1.13;;;11.10;39.20;;;;;;6266990;23;20150;-92
2021/03/12 15:58:49;;;;;;;3.38;1.30;;;11.40;39.30;;;;;;6252035;23;20373;-93
2021/03/12 16:01:16;;;;;;;4.23;1.20;;;11.70;39.20;;;;;;6225710;23;20499;-93
2021/03/12 16:03:42;;;;;;;2.40;1.40;;;11.70;38.70;;;;;;6252086;23;20899;-93
2021/03/12 16:06:09;;;;;;;2.80;1.03;;;11.70;38.00;;;;;;6261415;23;20372;-95
2021/03/12 16:08:39;;;;;;;5.07;1.65;;;11.80;37.80;;;;;;6261242;23;20142;-93
2021/03/12 16:11:14;;;;;;;1.20;1.10;;;11.80;37.00;;;;;;6239443;23;20185;-92
2021/03/12 16:13:41;;;;;;;4.85;1.23;;;11.70;37.50;;;;;;6262146;23;20177;-95
2021/03/12 16:16:21;;;;;;;7.07;1.73;;;11.80;37.80;;;;;;6265405;23;20145;-93
2021/03/12 16:18:50;;;;;;;4.10;1.70;;;11.50;38.40;;;;;;6270595;22;20603;-93
2021/03/12 16:21:21;;;;;;;3.72;1.20;;;11.40;38.80;;;;;;6264543;22;20160;-94
2021/03/12 16:24:05;;;;;;;3.22;1.50;;;11.50;38.00;;;;;;6264761;23;20189;-94
2021/03/12 16:26:40;;;;;;;3.60;2.10;;;11.60;37.00;;;;;;6263039;22;20152;-93
2021/03/12 16:29:08;;;;;;;3.80;1.80;;;11.80;36.80;;;;;;6262282;22;20206;-92
2021/03/12 16:31:34;;;;;;;3.73;1.30;;;12.10;36.40;;;;;;6263270;22;20395;-93
2021/03/12 16:34:41;;;;;;;1.17;1.07;;;12.10;35.50;;;;;;6257737;22;20371;-94
2021/03/12 16:37:20;;;;;;;3.77;1.50;;;12.40;34.80;;;;;;6262726;22;20363;-93
2021/03/12 16:39:49;;;;;;;4.00;1.70;;;11.80;34.70;;;;;;6275368;22;20363;-92
2021/03/12 16:42:15;;;;;;;3.40;1.67;;;11.70;34.70;;;;;;6264629;22;20454;-93
2021/03/12 16:44:43;;;;;;;3.87;1.60;;;11.60;34.30;;;;;;6261225;22;20195;-95
2021/03/12 16:47:10;;;;;;;4.70;1.58;;;11.80;34.30;;;;;;6260767;22;20157;-92
2021/03/12 16:49:37;;;;;;;1.98;1.38;;;11.90;33.10;;;;;;6259075;22;20608;-94
2021/03/12 16:52:03;;;;;;;4.70;1.83;;;11.70;32.90;;;;;;6263808;22;20146;-93
2021/03/12 16:57:56;;;;;;;2.17;1.13;;;12.00;32.50;;;;;;6298440;22;20136;-93
2021/03/12 17:04:00;;;;;;;3.55;1.00;;;11.40;32.20;;;;;;6294689;22;20261;-94
2021/03/12 17:06:30;;;;;;;6.45;1.70;;;11.70;32.90;;;;;;6270332;22;20157;-94
2021/03/12 18:05:49;;;;;;;7.35;3.15;;;10.70;35.60;;;;;;6268636;23;20240;-94
2021/03/12 18:11:38;;;;;;;5.37;2.47;;;10.60;35.80;;;;;;6258615;23;20360;-94
